Time;durP1;ratioP1;P1;durP2;ratioP2;P2;SDS_P1;SDS_P2;PMS_P1;PMS_P2;Temp;Humidity;BMP_temperature;BMP_pressure;BME280_temperature;BME280_humidity;BME280_pressure;Samples;Min_cycle;Max_cycle;Signal;HPM_P1;HPM_P2
2022/05/08 00:00:15;;;;;;;3.75;2.58;;;15.00;43.80;;;;;;5078051;28;20414;-57
2022/05/08 00:02:41;;;;;;;4.68;2.85;;;15.00;43.60;;;;;;5095673;28;20480;-57
2022/05/08 00:05:08;;;;;;;3.45;2.50;;;15.00;43.70;;;;;;5085291;28;20021;-56
2022/05/08 00:07:34;;;;;;;5.22;2.65;;;14.90;43.70;;;;;;5093378;28;20032;-57
2022/05/08 00:09:59;;;;;;;5.90;2.72;;;15.00;43.80;;;;;;5095545;28;20121;-56
2022/05/08 00:12:25;;;;;;;4.35;2.65;;;14.90;43.70;;;;;;5079441;28;20025;-56
2022/05/08 00:14:51;;;;;;;3.78;2.80;;;14.90;43.80;;;;;;5074872;28;20032;-57
2022/05/08 00:17:17;;;;;;;3.72;2.75;;;15.00;43.80;;;;;;5074818;28;20020;-56
2022/05/08 00:19:44;;;;;;;2.95;2.65;;;14.90;43.80;;;;;;5074971;28;20020;-55
2022/05/08 00:22:14;;;;;;;3.90;2.75;;;14.90;43.90;;;;;;5086622;28;20024;-57
2022/05/08 00:24:40;;;;;;;2.60;2.40;;;14.90;43.90;;;;;;5090421;28;21326;-57
2022/05/08 00:27:06;;;;;;;3.05;2.50;;;14.90;43.90;;;;;;5074981;28;20510;-57
2022/05/08 00:29:32;;;;;;;4.25;2.70;;;14.90;44.00;;;;;;5074601;28;20021;-57
2022/05/08 00:31:57;;;;;;;4.88;2.90;;;14.90;44.10;;;;;;5075164;28;20020;-57
2022/05/08 00:34:24;;;;;;;3.25;2.55;;;14.90;44.10;;;;;;5088159;28;20036;-56
2022/05/08 00:36:49;;;;;;;3.17;2.67;;;14.90;44.10;;;;;;5074808;28;20025;-56
2022/05/08 00:39:24;;;;;;;3.15;2.28;;;14.90;44.20;;;;;;5080938;28;20023;-56
2022/05/08 00:41:49;;;;;;;6.03;2.55;;;14.80;44.10;;;;;;5094686;28;20471;-57
2022/05/08 00:44:15;;;;;;;4.80;2.63;;;14.80;44.80;;;;;;5094192;28;20035;-57
2022/05/08 00:46:41;;;;;;;4.53;2.83;;;14.80;44.20;;;;;;5088591;28;20059;-56
2022/05/08 00:49:07;;;;;;;3.55;2.42;;;14.80;44.20;;;;;;5093698;28;20047;-57
2022/05/08 00:51:36;;;;;;;3.55;2.45;;;14.80;44.20;;;;;;5094360;28;20506;-57
2022/05/08 00:54:03;;;;;;;3.05;2.70;;;14.70;44.30;;;;;;5088502;28;20040;-57
2022/05/08 00:56:29;;;;;;;3.70;2.47;;;14.70;44.40;;;;;;5080141;28;20020;-57
2022/05/08 00:58:56;;;;;;;3.58;2.50;;;14.60;44.40;;;;;;5081875;28;20025;-56
2022/05/08 01:01:22;;;;;;;3.38;2.45;;;14.60;44.70;;;;;;5074350;28;20476;-56
2022/05/08 01:03:48;;;;;;;4.45;2.30;;;14.50;44.70;;;;;;5074488;28;20473;-57
2022/05/08 01:06:18;;;;;;;3.25;2.63;;;14.50;44.80;;;;;;5088883;28;20112;-55
2022/05/08 01:08:47;;;;;;;2.90;2.40;;;14.50;44.80;;;;;;5085328;28;20397;-56
2022/05/08 01:11:13;;;;;;;4.10;2.97;;;14.40;44.90;;;;;;5094397;28;20024;-57
2022/05/08 01:13:41;;;;;;;4.22;2.70;;;14.50;45.00;;;;;;5090016;28;20463;-57
2022/05/08 01:16:08;;;;;;;4.88;3.17;;;14.40;45.00;;;;;;5087565;28;20025;-57
2022/05/08 01:18:34;;;;;;;5.90;3.10;;;14.40;45.10;;;;;;5073750;28;20522;-57
2022/05/08 01:21:00;;;;;;;4.75;2.63;;;14.50;45.30;;;;;;5077133;28;20039;-57
2022/05/08 01:23:26;;;;;;;4.25;3.10;;;14.50;45.10;;;;;;5083556;28;20036;-56
2022/05/08 01:25:54;;;;;;;3.92;2.80;;;14.50;45.20;;;;;;5073616;28;20516;-57
2022/05/08 01:28:20;;;;;;;4.05;2.80;;;14.50;45.10;;;;;;5087038;28;20120;-57
2022/05/08 01:30:51;;;;;;;3.30;2.80;;;14.40;45.20;;;;;;5091471;28;20020;-57
2022/05/08 01:33:17;;;;;;;3.43;2.87;;;14.50;45.40;;;;;;5093796;28;20483;-57
2022/05/08 01:35:44;;;;;;;4.38;2.90;;;14.40;45.10;;;;;;5093629;28;20331;-56
2022/05/08 01:38:11;;;;;;;4.68;3.05;;;14.40;45.40;;;;;;5092933;28;20024;-59
2022/05/08 01:40:37;;;;;;;3.65;2.95;;;14.40;45.60;;;;;;5082092;28;20024;-58
2022/05/08 01:43:03;;;;;;;4.78;3.00;;;14.40;45.70;;;;;;5083201;28;20384;-58
2022/05/08 01:45:29;;;;;;;3.83;3.03;;;14.40;45.80;;;;;;5102906;28;20024;-58
2022/05/08 01:50:40;;;;;;;6.00;3.53;;;14.40;45.80;;;;;;5079192;28;20035;-59
2022/05/08 01:53:06;;;;;;;4.30;3.00;;;14.40;45.60;;;;;;5080031;28;20029;-57
2022/05/08 01:55:31;;;;;;;6.22;3.30;;;14.40;45.60;;;;;;5073182;28;20369;-57
2022/05/08 01:57:58;;;;;;;4.05;2.55;;;14.30;45.50;;;;;;5073145;28;20052;-57
2022/05/08 02:00:24;;;;;;;5.88;2.67;;;14.30;45.70;;;;;;5072898;28;20510;-56
2022/05/08 02:02:51;;;;;;;5.53;3.00;;;14.30;45.50;;;;;;5082124;28;20407;-56
2022/05/08 02:05:18;;;;;;;4.85;2.90;;;14.20;45.50;;;;;;5092693;28;20077;-59
2022/05/08 02:07:45;;;;;;;5.45;3.40;;;14.20;45.60;;;;;;5093311;28;20286;-59
2022/05/08 02:10:11;;;;;;;5.38;3.50;;;14.20;45.60;;;;;;5092323;28;20028;-59
2022/05/08 02:12:37;;;;;;;5.10;3.35;;;14.20;45.60;;;;;;5084202;28;20037;-58
2022/05/08 02:15:04;;;;;;;6.10;3.45;;;14.20;45.70;;;;;;5073904;28;20108;-58
2022/05/08 02:17:30;;;;;;;4.47;3.38;;;14.20;45.70;;;;;;5092795;28;20158;-57
2022/05/08 02:19:56;;;;;;;6.57;4.13;;;14.20;45.80;;;;;;5092123;28;20043;-57
2022/05/08 02:22:21;;;;;;;5.68;4.07;;;14.20;45.90;;;;;;5080473;28;20085;-56
2022/05/08 02:24:47;;;;;;;6.10;4.20;;;14.20;46.10;;;;;;5092765;28;20486;-57
2022/05/08 02:27:13;;;;;;;5.28;4.03;;;14.20;46.20;;;;;;5092818;28;20032;-57
2022/05/08 02:29:38;;;;;;;5.45;3.63;;;14.20;46.50;;;;;;5091625;28;20028;-57
2022/05/08 02:32:04;;;;;;;5.93;4.15;;;14.20;46.40;;;;;;5079599;28;20077;-57
2022/05/08 02:34:30;;;;;;;5.95;3.90;;;14.30;46.40;;;;;;5092693;28;20119;-58
2022/05/08 02:36:55;;;;;;;6.30;4.22;;;14.30;46.20;;;;;;5092659;28;20103;-58
2022/05/08 02:39:21;;;;;;;4.85;3.42;;;14.30;46.20;;;;;;5086201;28;20432;-59
2022/05/08 02:41:47;;;;;;;5.32;3.33;;;14.20;46.10;;;;;;5090674;28;20020;-59
2022/05/08 02:44:12;;;;;;;4.53;3.20;;;14.20;46.10;;;;;;5086850;28;20154;-58
2022/05/08 02:46:38;;;;;;;5.10;3.50;;;14.20;46.00;;;;;;5084584;28;20394;-58
2022/05/08 02:49:04;;;;;;;4.75;3.00;;;14.20;46.10;;;;;;5092052;28;20127;-59
2022/05/08 02:51:29;;;;;;;5.10;3.10;;;14.20;46.00;;;;;;5080485;28;20365;-58
2022/05/08 02:53:55;;;;;;;4.20;2.83;;;14.10;46.00;;;;;;5072600;28;20059;-58
2022/05/08 02:59:05;;;;;;;3.72;2.78;;;14.10;46.00;;;;;;5078817;28;20027;-59
2022/05/08 03:01:30;;;;;;;4.60;3.13;;;14.10;46.10;;;;;;5091047;28;20111;-58
2022/05/08 03:03:56;;;;;;;4.47;3.05;;;14.10;46.10;;;;;;5072257;28;20059;-58
2022/05/08 03:06:21;;;;;;;5.68;3.00;;;14.10;46.10;;;;;;5078818;28;20035;-59
2022/05/08 03:08:49;;;;;;;5.22;2.83;;;14.00;46.10;;;;;;5092727;28;20028;-57
2022/05/08 03:11:28;;;;;;;4.25;2.80;;;14.00;46.20;;;;;;5089821;28;20024;-55
2022/05/08 03:13:55;;;;;;;4.30;2.65;;;14.00;46.20;;;;;;5087188;28;20028;-56
2022/05/08 03:16:26;;;;;;;4.40;3.00;;;14.00;46.20;;;;;;5076011;28;20035;-56
2022/05/08 03:18:51;;;;;;;4.00;3.10;;;14.00;46.20;;;;;;5076326;28;20016;-56
2022/05/08 03:21:17;;;;;;;4.85;2.92;;;14.00;46.30;;;;;;5089020;28;20041;-56
2022/05/08 03:23:44;;;;;;;4.88;3.10;;;14.00;46.30;;;;;;5087757;28;20020;-57
2022/05/08 03:26:12;;;;;;;3.38;2.67;;;14.00;46.30;;;;;;5077547;28;20062;-56
2022/05/08 03:28:38;;;;;;;4.13;2.88;;;14.00;46.30;;;;;;5076860;28;20094;-57
2022/05/08 03:31:04;;;;;;;4.00;2.90;;;14.10;46.50;;;;;;5089089;28;20024;-57
2022/05/08 03:33:31;;;;;;;6.88;2.90;;;14.20;46.40;;;;;;5075739;28;20391;-57
2022/05/08 03:35:58;;;;;;;4.78;3.35;;;14.20;46.40;;;;;;5075733;28;20029;-56
2022/05/08 03:38:24;;;;;;;4.32;2.88;;;14.30;46.30;;;;;;5085943;28;20069;-56
2022/05/08 03:40:50;;;;;;;3.70;3.08;;;14.40;46.20;;;;;;5078955;28;20032;-57
2022/05/08 03:43:16;;;;;;;4.63;3.13;;;14.50;46.20;;;;;;5087574;28;20488;-56
2022/05/08 03:45:43;;;;;;;4.28;3.22;;;14.60;46.40;;;;;;5076278;28;20032;-57
2022/05/08 03:48:09;;;;;;;3.80;3.10;;;14.70;46.60;;;;;;5093101;28;20145;-57
2022/05/08 03:50:36;;;;;;;5.57;3.40;;;15.00;46.70;;;;;;5096013;28;20024;-57
2022/05/08 03:53:03;;;;;;;4.32;3.13;;;15.30;46.50;;;;;;5093256;28;20032;-57
2022/05/08 03:55:29;;;;;;;4.85;3.50;;;15.60;46.80;;;;;;5094331;28;20399;-56
2022/05/08 03:57:55;;;;;;;3.50;3.05;;;16.10;46.90;;;;;;5082054;28;20031;-56
2022/05/08 04:00:21;;;;;;;5.25;3.58;;;16.80;46.60;;;;;;5095558;28;20024;-56
2022/05/08 04:02:47;;;;;;;4.03;3.30;;;17.40;45.60;;;;;;5090588;28;20025;-57
2022/05/08 04:05:13;;;;;;;5.90;3.78;;;17.80;44.70;;;;;;5095328;28;20031;-56
2022/05/08 04:07:39;;;;;;;4.32;3.58;;;18.10;44.20;;;;;;5090325;28;20036;-57
2022/05/08 04:10:06;;;;;;;6.20;3.78;;;18.40;43.90;;;;;;5075300;28;20020;-57
2022/05/08 04:12:32;;;;;;;4.85;4.00;;;18.60;43.20;;;;;;5087661;28;20039;-57
2022/05/08 04:14:59;;;;;;;7.10;3.60;;;18.60;42.80;;;;;;5092821;28;20500;-57
2022/05/08 04:17:26;;;;;;;5.03;3.70;;;18.60;42.60;;;;;;5094997;28;20027;-56
2022/05/08 04:19:52;;;;;;;5.43;3.80;;;18.40;42.30;;;;;;5084186;28;20071;-56
2022/05/08 04:25:02;;;;;;;5.13;4.05;;;18.20;42.40;;;;;;5095414;28;20113;-57
2022/05/08 04:27:27;;;;;;;5.82;4.13;;;18.10;42.50;;;;;;5094401;28;20503;-56
2022/05/08 04:29:53;;;;;;;5.20;3.85;;;18.00;42.50;;;;;;5075180;28;20100;-57
2022/05/08 04:32:19;;;;;;;5.78;3.92;;;18.00;42.70;;;;;;5074613;28;20043;-56
2022/05/08 04:34:44;;;;;;;4.55;3.63;;;17.90;42.70;;;;;;5079707;28;20418;-57
2022/05/08 04:37:10;;;;;;;4.07;3.63;;;17.80;42.80;;;;;;5083787;28;20040;-57
2022/05/08 04:39:36;;;;;;;5.63;3.92;;;17.80;42.90;;;;;;5093178;28;20476;-55
2022/05/08 04:42:02;;;;;;;6.50;3.88;;;17.80;43.00;;;;;;5092476;28;20111;-57
2022/05/08 04:44:28;;;;;;;4.82;3.33;;;17.80;43.10;;;;;;5081941;28;20039;-57
2022/05/08 04:46:54;;;;;;;5.03;4.30;;;17.80;43.10;;;;;;5090885;28;20499;-57
2022/05/08 04:49:20;;;;;;;4.32;3.35;;;17.70;43.10;;;;;;5093867;28;20032;-57
2022/05/08 04:51:45;;;;;;;5.38;3.63;;;17.60;43.30;;;;;;5090366;28;20037;-57
2022/05/08 04:54:11;;;;;;;6.18;3.38;;;17.50;43.20;;;;;;5075038;28;20469;-57
2022/05/08 04:56:37;;;;;;;6.20;3.60;;;17.50;43.40;;;;;;5091064;28;20028;-56
2022/05/08 04:59:03;;;;;;;5.32;3.40;;;17.40;43.40;;;;;;5094424;28;20031;-57
2022/05/08 05:01:28;;;;;;;6.43;3.70;;;17.40;43.60;;;;;;5076961;28;20032;-57
2022/05/08 05:03:55;;;;;;;6.00;3.22;;;17.40;43.80;;;;;;5081453;28;20028;-56
2022/05/08 05:06:20;;;;;;;6.18;3.90;;;17.40;43.80;;;;;;5094201;28;20479;-56
2022/05/08 05:08:46;;;;;;;4.40;3.22;;;17.50;44.00;;;;;;5093376;28;20024;-57
2022/05/08 05:11:12;;;;;;;4.80;3.40;;;17.50;43.90;;;;;;5087223;28;20043;-57
2022/05/08 05:13:38;;;;;;;4.15;3.38;;;17.50;44.00;;;;;;5093198;28;20059;-56
2022/05/08 05:16:05;;;;;;;3.95;3.22;;;17.50;44.10;;;;;;5094212;28;20028;-56
2022/05/08 05:18:30;;;;;;;4.10;3.25;;;17.60;44.20;;;;;;5093708;28;20106;-57
2022/05/08 05:20:56;;;;;;;4.28;3.00;;;17.60;44.30;;;;;;5080053;28;20128;-55
2022/05/08 05:23:22;;;;;;;5.72;3.08;;;17.60;44.40;;;;;;5093917;28;20019;-57
2022/05/08 05:25:49;;;;;;;3.97;3.25;;;17.70;44.70;;;;;;5093706;28;20054;-56
2022/05/08 05:28:16;;;;;;;5.32;3.58;;;17.80;45.00;;;;;;5091879;28;20492;-57
2022/05/08 05:30:42;;;;;;;5.78;3.28;;;17.90;45.00;;;;;;5093620;28;20463;-56
2022/05/08 05:33:07;;;;;;;5.03;3.20;;;18.00;45.00;;;;;;5093821;28;20074;-57
2022/05/08 05:35:37;;;;;;;4.13;3.53;;;18.10;44.90;;;;;;5093231;28;20027;-56
2022/05/08 05:38:03;;;;;;;4.03;3.05;;;18.30;45.00;;;;;;5089731;28;20034;-57
2022/05/08 05:40:29;;;;;;;3.60;2.75;;;18.40;45.00;;;;;;5073308;28;20471;-57
2022/05/08 05:42:54;;;;;;;3.25;2.95;;;18.50;44.80;;;;;;5086024;28;20029;-57
2022/05/08 05:45:20;;;;;;;4.90;2.97;;;18.60;44.60;;;;;;5083801;28;20031;-57
2022/05/08 05:47:54;;;;;;;4.30;3.10;;;18.70;44.60;;;;;;5093083;28;20472;-57
2022/05/08 05:50:25;;;;;;;6.20;3.13;;;18.80;44.60;;;;;;5092766;28;20036;-57
2022/05/08 05:52:51;;;;;;;3.85;2.75;;;18.90;44.40;;;;;;5093406;28;20169;-57
2022/05/08 05:55:18;;;;;;;5.13;3.10;;;19.00;44.30;;;;;;5093438;28;20024;-57
2022/05/08 05:57:44;;;;;;;3.85;2.80;;;19.10;44.20;;;;;;5076388;28;20134;-57
2022/05/08 06:00:15;;;;;;;3.72;3.20;;;19.10;44.30;;;;;;5083551;28;20020;-57
2022/05/08 06:02:43;;;;;;;5.68;3.35;;;19.20;44.10;;;;;;5091913;28;20480;-57
2022/05/08 06:05:10;;;;;;;5.18;3.40;;;19.20;44.10;;;;;;5093420;28;20039;-57
2022/05/08 06:07:37;;;;;;;5.22;2.97;;;19.10;44.00;;;;;;5093193;28;20069;-57
2022/05/08 06:10:08;;;;;;;4.68;3.38;;;19.10;44.20;;;;;;5093399;28;20379;-57
2022/05/08 06:12:34;;;;;;;6.78;3.25;;;19.10;44.30;;;;;;5090767;28;20024;-57
2022/05/08 06:15:00;;;;;;;6.60;3.17;;;19.20;44.60;;;;;;5078087;28;20361;-57
2022/05/08 06:17:26;;;;;;;3.70;2.90;;;19.20;44.70;;;;;;5081184;28;20024;-57
2022/05/08 06:19:52;;;;;;;6.13;3.15;;;19.20;44.70;;;;;;5087593;28;20031;-57
2022/05/08 06:22:18;;;;;;;4.47;3.47;;;19.30;45.00;;;;;;5092903;28;20095;-56
2022/05/08 06:24:43;;;;;;;5.97;2.95;;;19.40;45.00;;;;;;5092840;28;20020;-57
2022/05/08 06:27:10;;;;;;;4.03;3.28;;;19.40;44.90;;;;;;5093033;28;20062;-57
2022/05/08 06:29:36;;;;;;;3.65;3.13;;;19.50;44.90;;;;;;5093084;28;20378;-57
2022/05/08 06:32:02;;;;;;;3.85;3.05;;;19.50;44.90;;;;;;5086111;28;20099;-57
2022/05/08 06:34:27;;;;;;;4.30;2.90;;;19.60;44.90;;;;;;5082120;28;20611;-57
2022/05/08 06:36:54;;;;;;;3.83;3.17;;;19.60;44.80;;;;;;5084698;28;20040;-57
2022/05/08 06:39:20;;;;;;;4.25;2.90;;;19.60;44.70;;;;;;5093031;28;20148;-56
2022/05/08 06:41:46;;;;;;;4.28;3.30;;;19.70;44.90;;;;;;5074125;28;20020;-58
2022/05/08 06:44:13;;;;;;;3.83;2.72;;;19.70;44.80;;;;;;5089586;28;20043;-58
2022/05/08 06:46:39;;;;;;;3.72;2.70;;;19.80;44.90;;;;;;5075392;28;20044;-57
2022/05/08 06:49:06;;;;;;;4.20;3.22;;;19.80;44.90;;;;;;5101400;28;20032;-57
2022/05/08 06:51:32;;;;;;;5.82;2.80;;;19.80;44.90;;;;;;5090461;28;20039;-57
2022/05/08 06:53:58;;;;;;;5.13;2.97;;;19.90;45.00;;;;;;5087033;28;20024;-57
2022/05/08 06:56:26;;;;;;;3.72;2.88;;;19.90;44.90;;;;;;5095886;28;20383;-57
2022/05/08 07:01:38;;;;;;;3.97;2.90;;;20.00;44.80;;;;;;5076896;28;20032;-57
2022/05/08 07:04:05;;;;;;;4.20;2.72;;;20.00;44.80;;;;;;5076299;28;20033;-57
2022/05/08 07:06:30;;;;;;;4.97;3.03;;;20.00;45.00;;;;;;5076531;28;20039;-57
2022/05/08 07:08:57;;;;;;;5.20;2.80;;;20.10;45.10;;;;;;5088880;28;20028;-57
2022/05/08 07:11:23;;;;;;;4.35;2.95;;;20.10;45.00;;;;;;5086404;28;20027;-57
2022/05/08 07:13:51;;;;;;;5.35;2.65;;;20.20;44.80;;;;;;5081163;28;20060;-58
2022/05/08 07:16:17;;;;;;;3.25;2.72;;;20.30;44.90;;;;;;5086673;28;20028;-59
2022/05/08 07:18:43;;;;;;;3.35;2.78;;;20.30;45.00;;;;;;5096615;28;20065;-58
2022/05/08 07:21:09;;;;;;;4.47;2.70;;;20.30;44.80;;;;;;5095767;28;20047;-58
2022/05/08 07:23:35;;;;;;;3.28;2.58;;;20.40;44.70;;;;;;5096306;28;20020;-58
2022/05/08 07:26:01;;;;;;;3.92;2.55;;;20.50;44.60;;;;;;5096241;28;20024;-58
2022/05/08 07:28:28;;;;;;;3.33;2.47;;;20.50;44.60;;;;;;5095266;28;20069;-55
2022/05/08 07:30:54;;;;;;;2.13;1.95;;;20.60;43.90;;;;;;5096364;28;20020;-56
2022/05/08 07:33:20;;;;;;;3.38;2.10;;;20.60;43.30;;;;;;5089069;28;20036;-56
2022/05/08 07:38:32;;;;;;;2.15;1.92;;;20.80;43.00;;;;;;5085792;28;20035;-57
2022/05/08 07:40:58;;;;;;;5.05;2.05;;;20.80;42.70;;;;;;5073956;28;20131;-57
2022/05/08 07:43:25;;;;;;;3.35;2.40;;;20.90;42.60;;;;;;5083654;28;20028;-58
2022/05/08 07:45:51;;;;;;;3.92;2.58;;;21.00;42.60;;;;;;5093299;28;20591;-58
2022/05/08 07:48:17;;;;;;;2.30;2.05;;;21.00;42.30;;;;;;5085109;28;20114;-58
2022/05/08 07:50:45;;;;;;;4.20;2.20;;;21.00;42.10;;;;;;5086997;28;20084;-58
2022/05/08 07:53:12;;;;;;;2.53;2.33;;;21.10;42.20;;;;;;5084815;28;20403;-58
2022/05/08 07:55:38;;;;;;;2.78;2.22;;;21.10;42.00;;;;;;5090505;28;20048;-58
2022/05/08 07:58:03;;;;;;;2.58;2.33;;;21.10;42.00;;;;;;5087755;28;20071;-58
2022/05/08 08:00:29;;;;;;;2.17;1.90;;;21.20;42.00;;;;;;5089660;28;20037;-58
2022/05/08 08:02:55;;;;;;;2.30;2.10;;;21.20;41.90;;;;;;5088377;28;20073;-57
2022/05/08 08:05:21;;;;;;;2.50;2.13;;;21.20;41.60;;;;;;5088424;28;20048;-59
2022/05/08 08:07:47;;;;;;;3.97;2.30;;;21.20;41.60;;;;;;5075312;28;20024;-57
2022/05/08 08:10:13;;;;;;;2.60;1.92;;;21.20;41.60;;;;;;5093857;28;20038;-58
2022/05/08 08:12:39;;;;;;;2.90;2.25;;;21.30;41.80;;;;;;5086118;28;20024;-59
2022/05/08 08:15:05;;;;;;;2.47;2.22;;;21.30;41.80;;;;;;5090824;28;20392;-58
2022/05/08 08:17:31;;;;;;;3.85;2.33;;;21.30;42.10;;;;;;5085463;28;20119;-58
2022/05/08 08:19:57;;;;;;;2.92;2.22;;;21.30;41.70;;;;;;5086921;28;20458;-57
2022/05/08 08:22:23;;;;;;;2.70;2.25;;;21.30;41.70;;;;;;5076882;28;20025;-58
2022/05/08 08:24:49;;;;;;;3.10;2.17;;;21.30;41.60;;;;;;5074863;28;20032;-59
2022/05/08 08:27:19;;;;;;;2.20;2.00;;;21.30;41.50;;;;;;5085329;28;20035;-58
2022/05/08 08:29:45;;;;;;;2.50;1.98;;;21.30;41.40;;;;;;5076629;28;20032;-57
2022/05/08 08:32:10;;;;;;;3.47;2.20;;;21.30;41.10;;;;;;5074897;28;20500;-58
2022/05/08 08:34:36;;;;;;;2.28;2.08;;;21.30;40.90;;;;;;5079577;28;20031;-58
2022/05/08 08:37:02;;;;;;;2.67;2.10;;;21.30;40.60;;;;;;5094986;28;20391;-58
2022/05/08 08:39:27;;;;;;;4.07;2.50;;;21.40;40.30;;;;;;5094342;28;20391;-59
2022/05/08 08:42:03;;;;;;;2.80;2.15;;;21.40;39.80;;;;;;5094438;28;20539;-59
2022/05/08 08:50:03;;;;;;;3.38;1.73;;;21.40;39.50;;;;;;5090474;28;20070;-59
2022/05/08 08:52:29;;;;;;;3.15;2.40;;;21.30;39.30;;;;;;5086939;28;20089;-56
2022/05/08 08:54:55;;;;;;;2.88;2.03;;;21.30;39.30;;;;;;5084747;28;20033;-58
2022/05/08 08:57:21;;;;;;;2.75;2.20;;;21.30;39.40;;;;;;5088177;28;20036;-59
2022/05/08 08:59:46;;;;;;;3.10;2.60;;;21.30;39.50;;;;;;5080533;28;20024;-58
2022/05/08 09:02:20;;;;;;;2.38;2.05;;;21.30;39.30;;;;;;5094403;28;20028;-58
2022/05/08 09:04:46;;;;;;;2.47;2.13;;;21.30;39.40;;;;;;5094818;28;20540;-56
2022/05/08 09:07:33;;;;;;;2.55;2.33;;;21.30;39.50;;;;;;5094807;28;20028;-58
2022/05/08 09:10:18;;;;;;;2.70;2.10;;;21.30;39.30;;;;;;5089558;28;20032;-58
2022/05/08 09:13:02;;;;;;;3.92;2.58;;;21.30;39.30;;;;;;5074290;28;20421;-57
2022/05/08 09:15:35;;;;;;;3.63;2.25;;;21.30;39.40;;;;;;5080799;28;20031;-58
2022/05/08 09:18:08;;;;;;;2.80;2.35;;;21.30;39.40;;;;;;5093183;28;20399;-58
2022/05/08 09:20:40;;;;;;;3.05;2.47;;;21.30;39.40;;;;;;5081757;28;20040;-58
2022/05/08 09:23:13;;;;;;;2.63;2.42;;;21.30;39.50;;;;;;5077556;28;20427;-58
2022/05/08 09:25:55;;;;;;;2.70;2.30;;;21.30;39.50;;;;;;5086942;28;20043;-59
2022/05/08 09:28:42;;;;;;;2.92;2.22;;;21.30;39.50;;;;;;5092446;28;20032;-58
2022/05/08 09:31:10;;;;;;;2.65;2.33;;;21.30;39.70;;;;;;5092907;28;20016;-58
2022/05/08 09:33:37;;;;;;;2.42;2.22;;;21.20;40.60;;;;;;5081315;28;20523;-58
2022/05/08 09:36:04;;;;;;;2.30;2.10;;;21.20;42.20;;;;;;5078877;28;20495;-58
2022/05/08 09:38:44;;;;;;;4.47;2.75;;;21.10;43.30;;;;;;5082004;28;20052;-58
2022/05/08 09:41:10;;;;;;;2.50;2.28;;;21.00;43.80;;;;;;5083354;28;20252;-58
2022/05/08 09:43:36;;;;;;;2.58;2.38;;;20.90;43.90;;;;;;5080315;28;20024;-59
2022/05/08 09:46:04;;;;;;;2.83;2.50;;;20.80;44.50;;;;;;5091881;28;20440;-59
2022/05/08 09:48:33;;;;;;;3.42;2.53;;;20.70;44.60;;;;;;5088026;28;20024;-57
2022/05/08 09:51:16;;;;;;;2.47;2.20;;;20.70;44.60;;;;;;5073333;28;20060;-59
2022/05/08 09:53:46;;;;;;;2.33;2.08;;;20.60;45.80;;;;;;5078494;28;20040;-58
2022/05/08 09:56:13;;;;;;;5.35;2.40;;;20.50;46.10;;;;;;5082769;28;20067;-58
2022/05/08 09:58:40;;;;;;;3.13;2.17;;;20.50;46.30;;;;;;5073408;28;20042;-57
2022/05/08 10:01:07;;;;;;;2.45;2.10;;;20.40;46.60;;;;;;5090714;28;20099;-58
2022/05/08 10:03:33;;;;;;;2.67;2.25;;;20.30;46.80;;;;;;5092416;28;20415;-59
2022/05/08 10:06:02;;;;;;;2.95;2.20;;;20.20;47.50;;;;;;5083489;28;20096;-57
2022/05/08 10:08:39;;;;;;;3.00;2.17;;;20.20;48.40;;;;;;5073370;28;20067;-58
2022/05/08 10:14:00;;;;;;;2.25;2.05;;;20.10;48.40;;;;;;5093554;28;20031;-58
2022/05/08 10:16:56;;;;;;;3.47;2.05;;;19.90;48.20;;;;;;5088927;28;20032;-58
2022/05/08 10:19:27;;;;;;;2.00;1.70;;;19.90;48.60;;;;;;5092184;28;20463;-58
2022/05/08 10:21:56;;;;;;;2.47;2.20;;;19.70;49.20;;;;;;5092768;28;20073;-58
2022/05/08 10:24:41;;;;;;;2.90;2.30;;;19.60;49.40;;;;;;5092096;28;20032;-59
2022/05/08 10:27:26;;;;;;;3.13;2.15;;;19.40;50.40;;;;;;5072442;28;20064;-58
2022/05/08 10:29:52;;;;;;;2.80;2.15;;;19.30;51.80;;;;;;5087209;28;20479;-58
2022/05/08 10:32:33;;;;;;;1.90;1.80;;;19.20;51.10;;;;;;5084396;28;20029;-58
2022/05/08 10:35:26;;;;;;;4.27;1.97;;;19.20;51.20;;;;;;5089264;28;20032;-58
2022/05/08 10:37:55;;;;;;;2.92;2.33;;;19.20;50.90;;;;;;5092721;28;20280;-58
2022/05/08 10:40:24;;;;;;;2.00;1.90;;;19.20;50.90;;;;;;5091547;28;20048;-58
2022/05/08 10:42:55;;;;;;;2.00;1.90;;;19.20;50.80;;;;;;5092906;28;20490;-59
2022/05/08 10:45:38;;;;;;;3.35;2.10;;;19.20;50.40;;;;;;5093382;28;20710;-58
2022/05/08 10:48:07;;;;;;;2.17;1.98;;;19.20;49.40;;;;;;5085857;28;20029;-59
2022/05/08 10:50:37;;;;;;;1.70;1.60;;;19.20;48.90;;;;;;5077495;28;20081;-59
2022/05/08 10:53:02;;;;;;;2.00;1.80;;;19.30;48.00;;;;;;5092329;28;20036;-59
2022/05/08 10:55:28;;;;;;;2.33;1.73;;;19.40;48.40;;;;;;5077652;28;20032;-59
2022/05/08 10:57:55;;;;;;;4.22;2.10;;;19.40;48.40;;;;;;5075491;28;20060;-58
2022/05/08 11:00:29;;;;;;;2.33;2.00;;;19.40;48.60;;;;;;5090234;28;20020;-58
2022/05/08 11:02:57;;;;;;;2.25;1.77;;;19.40;48.80;;;;;;5090628;28;20484;-59
2022/05/08 11:05:27;;;;;;;2.40;2.13;;;19.40;49.00;;;;;;5071570;28;20025;-59
2022/05/08 11:07:57;;;;;;;2.55;1.90;;;19.40;49.60;;;;;;5085832;28;20024;-59
2022/05/08 11:10:27;;;;;;;2.33;2.13;;;19.40;49.10;;;;;;5091976;28;20020;-55
2022/05/08 11:13:04;;;;;;;2.22;2.03;;;19.40;48.30;;;;;;5077362;28;20507;-59
2022/05/08 11:15:32;;;;;;;4.80;2.08;;;19.40;47.70;;;;;;5071853;28;20099;-59
2022/05/08 11:18:09;;;;;;;2.40;2.20;;;19.50;47.40;;;;;;5072492;28;20020;-59
2022/05/08 11:20:47;;;;;;;4.53;2.00;;;19.50;47.10;;;;;;5084013;28;20067;-59
2022/05/08 11:23:14;;;;;;;2.50;2.00;;;19.50;47.60;;;;;;5092128;28;20032;-58
2022/05/08 11:25:41;;;;;;;3.15;2.08;;;19.50;47.20;;;;;;5080213;28;20036;-59
2022/05/08 11:28:16;;;;;;;2.50;1.80;;;19.50;47.50;;;;;;5091671;28;20099;-58
2022/05/08 11:30:42;;;;;;;3.42;1.80;;;19.40;47.20;;;;;;5080961;28;20081;-58
2022/05/08 11:36:11;;;;;;;2.17;1.70;;;19.40;46.90;;;;;;5085814;28;20043;-58
2022/05/08 11:38:44;;;;;;;2.22;1.80;;;19.40;46.80;;;;;;5096112;28;20028;-59
2022/05/08 11:41:21;;;;;;;2.97;2.20;;;19.40;46.60;;;;;;5085148;28;20024;-58
2022/05/08 11:43:52;;;;;;;1.85;1.75;;;19.40;46.70;;;;;;5086978;28;20031;-59
2022/05/08 11:46:38;;;;;;;2.03;1.60;;;19.40;46.50;;;;;;5095785;28;20112;-58
2022/05/08 11:49:18;;;;;;;3.42;2.30;;;19.40;46.30;;;;;;5089274;28;20487;-59
2022/05/08 11:51:45;;;;;;;2.25;1.88;;;19.40;46.80;;;;;;5085368;28;20021;-59
2022/05/08 11:54:33;;;;;;;2.35;2.03;;;19.40;46.90;;;;;;5088936;28;20027;-57
2022/05/08 11:57:18;;;;;;;2.28;1.88;;;19.40;47.20;;;;;;5090967;28;20055;-59
2022/05/08 11:59:49;;;;;;;2.67;2.00;;;19.40;47.60;;;;;;5091841;28;20024;-59
2022/05/08 12:02:16;;;;;;;2.17;1.98;;;19.30;47.20;;;;;;5090948;28;20052;-59
2022/05/08 12:04:54;;;;;;;3.83;2.13;;;19.20;46.50;;;;;;5075804;28;20025;-58
2022/05/08 12:07:19;;;;;;;3.08;2.33;;;19.20;46.50;;;;;;5085401;28;20434;-59
2022/05/08 12:09:45;;;;;;;2.38;2.10;;;19.20;47.00;;;;;;5095890;28;20035;-58
2022/05/08 12:12:22;;;;;;;2.53;1.95;;;19.20;47.10;;;;;;5089314;28;20024;-58
2022/05/08 12:14:48;;;;;;;2.50;2.30;;;19.10;48.00;;;;;;5075542;28;20024;-58
2022/05/08 12:17:13;;;;;;;2.55;2.10;;;19.10;48.60;;;;;;5081620;28;20030;-59
2022/05/08 12:19:56;;;;;;;3.70;2.30;;;19.00;48.40;;;;;;5095806;28;20422;-59
2022/05/08 12:22:27;;;;;;;2.80;2.50;;;19.00;49.40;;;;;;5095101;28;20032;-59
2022/05/08 12:24:54;;;;;;;4.22;2.60;;;19.00;49.40;;;;;;5085310;28;20468;-59
2022/05/08 12:27:20;;;;;;;2.90;2.60;;;18.90;48.30;;;;;;5075118;28;20102;-59
2022/05/08 12:29:46;;;;;;;4.25;3.20;;;18.90;48.40;;;;;;5089705;28;20028;-59
2022/05/08 12:32:16;;;;;;;2.97;2.50;;;18.90;48.30;;;;;;5081816;28;20502;-59
2022/05/08 12:34:46;;;;;;;3.60;3.03;;;18.90;48.00;;;;;;5092717;28;20051;-58
2022/05/08 12:37:15;;;;;;;3.53;2.50;;;18.90;47.60;;;;;;5095090;28;20311;-58
2022/05/08 12:39:41;;;;;;;4.60;2.80;;;19.00;47.30;;;;;;5095065;28;20024;-59
2022/05/08 12:42:08;;;;;;;2.80;2.33;;;19.00;47.30;;;;;;5074772;28;20020;-59
2022/05/08 12:44:36;;;;;;;4.05;2.63;;;19.00;47.20;;;;;;5086595;28;20031;-59
2022/05/08 12:47:05;;;;;;;2.67;2.40;;;19.10;47.00;;;;;;5079828;28;20536;-59
2022/05/08 12:49:31;;;;;;;2.80;2.10;;;19.10;46.90;;;;;;5090592;28;20060;-59
2022/05/08 12:51:57;;;;;;;2.78;2.25;;;19.10;47.20;;;;;;5075365;28;20063;-58
2022/05/08 12:54:23;;;;;;;3.72;2.30;;;19.10;47.30;;;;;;5093802;28;20056;-59
2022/05/08 12:56:49;;;;;;;12.10;2.72;;;19.10;47.00;;;;;;5083266;28;20032;-59
2022/05/08 13:01:59;;;;;;;2.88;2.20;;;19.10;46.80;;;;;;5073098;28;20027;-58
2022/05/08 13:04:24;;;;;;;3.25;1.85;;;19.10;46.90;;;;;;5078900;28;20467;-59
2022/05/08 13:06:50;;;;;;;3.08;2.33;;;19.10;47.20;;;;;;5086705;28;20066;-58
2022/05/08 13:09:16;;;;;;;2.20;1.92;;;19.10;47.10;;;;;;5093442;28;20024;-58
2022/05/08 13:11:42;;;;;;;2.97;2.38;;;19.10;47.30;;;;;;5094349;28;20020;-59
2022/05/08 13:14:08;;;;;;;2.60;2.28;;;19.10;47.70;;;;;;5093460;28;20080;-58
2022/05/08 13:16:34;;;;;;;2.58;2.08;;;19.10;47.30;;;;;;5081717;28;20107;-59
2022/05/08 13:19:01;;;;;;;3.10;2.20;;;19.10;47.50;;;;;;5080719;28;20036;-59